Time;durP1;ratioP1;P1;durP2;ratioP2;P2;SDS_P1;SDS_P2;PMS_P1;PMS_P2;Temp;Humidity;BMP_temperature;BMP_pressure;BME280_temperature;BME280_humidity;BME280_pressure;Samples;Min_cycle;Max_cycle;Signal;HPM_P1;HPM_P2
2022/02/17 00:00:43;;;;;;;4.67;0.60;;;10.90;99.90;;;;;;4998569;28;20206;-79
2022/02/17 00:03:10;;;;;;;0.73;0.63;;;10.90;99.90;;;;;;4998513;28;20239;-78
2022/02/17 00:05:36;;;;;;;1.23;0.57;;;11.00;99.90;;;;;;4997578;28;20173;-77
2022/02/17 00:08:02;;;;;;;0.73;0.60;;;11.00;99.90;;;;;;4997570;28;20181;-78
2022/02/17 00:10:28;;;;;;;1.03;0.70;;;11.10;99.90;;;;;;4997878;28;20184;-80
2022/02/17 00:12:58;;;;;;;1.00;0.60;;;11.20;99.90;;;;;;5013032;28;20186;-79
2022/02/17 00:15:25;;;;;;;1.00;0.77;;;11.20;99.90;;;;;;4998217;28;20713;-78
2022/02/17 00:17:51;;;;;;;0.83;0.40;;;11.20;99.90;;;;;;4998404;28;20181;-79
2022/02/17 00:20:18;;;;;;;0.80;0.77;;;11.20;99.90;;;;;;4996977;28;20206;-78
2022/02/17 00:22:43;;;;;;;0.40;0.40;;;11.20;99.90;;;;;;4996853;28;20241;-77
2022/02/17 00:25:10;;;;;;;1.67;0.70;;;11.20;99.90;;;;;;4996116;28;20183;-78
2022/02/17 00:27:37;;;;;;;1.10;0.60;;;11.10;99.90;;;;;;4999117;28;20242;-79
2022/02/17 00:30:05;;;;;;;3.10;0.70;;;11.00;99.90;;;;;;4996630;28;20202;-78
2022/02/17 00:32:30;;;;;;;1.83;0.70;;;10.60;99.90;;;;;;4997202;28;20188;-78
2022/02/17 00:34:56;;;;;;;0.57;0.40;;;10.50;99.90;;;;;;4998051;28;20183;-77
2022/02/17 00:37:22;;;;;;;1.37;0.63;;;10.40;99.90;;;;;;5004451;28;20629;-79
2022/02/17 00:39:48;;;;;;;3.03;0.77;;;10.30;99.90;;;;;;4997638;28;20200;-79
2022/02/17 00:42:15;;;;;;;3.57;0.90;;;10.20;99.90;;;;;;4999089;28;20701;-78
2022/02/17 00:44:42;;;;;;;2.07;0.60;;;10.10;99.90;;;;;;4994623;28;20180;-79
2022/02/17 00:47:11;;;;;;;3.00;0.80;;;10.00;99.90;;;;;;5013343;28;20207;-79
2022/02/17 00:49:37;;;;;;;2.27;0.70;;;9.90;99.90;;;;;;5003783;28;20246;-79
2022/02/17 00:52:03;;;;;;;3.53;0.90;;;9.80;99.90;;;;;;5004935;28;20183;-77
2022/02/17 00:54:28;;;;;;;3.77;0.80;;;9.80;99.90;;;;;;4997683;28;20184;-79
2022/02/17 00:56:54;;;;;;;1.17;0.60;;;9.80;99.90;;;;;;4996471;28;20191;-79
2022/02/17 00:59:19;;;;;;;0.80;0.43;;;9.90;99.90;;;;;;4996838;28;20749;-78
2022/02/17 01:01:46;;;;;;;3.30;0.60;;;9.90;99.90;;;;;;4997334;28;20238;-78
2022/02/17 01:04:16;;;;;;;2.30;0.50;;;10.00;99.90;;;;;;4997326;28;20844;-78
2022/02/17 01:06:42;;;;;;;3.03;0.60;;;10.00;99.90;;;;;;4997402;28;20665;-80
2022/02/17 01:09:09;;;;;;;2.20;0.70;;;10.00;99.90;;;;;;4998870;28;20200;-78
2022/02/17 01:11:35;;;;;;;0.80;0.50;;;10.00;99.90;;;;;;5013252;28;20179;-80
2022/02/17 01:14:02;;;;;;;1.07;0.60;;;10.00;99.90;;;;;;4997444;28;20180;-79
2022/02/17 01:16:27;;;;;;;2.00;0.50;;;10.10;99.90;;;;;;4997243;28;20207;-79
2022/02/17 01:18:53;;;;;;;3.17;0.87;;;10.20;99.90;;;;;;4996260;28;20647;-80
2022/02/17 01:21:18;;;;;;;2.90;0.60;;;10.20;99.90;;;;;;4997708;28;20181;-78
2022/02/17 01:23:44;;;;;;;2.50;0.60;;;10.30;99.90;;;;;;4996654;28;20215;-79
2022/02/17 01:26:10;;;;;;;1.33;0.50;;;10.40;99.90;;;;;;4997101;28;20185;-79
2022/02/17 01:28:36;;;;;;;2.40;0.60;;;10.40;99.90;;;;;;4996962;28;20203;-79
2022/02/17 01:31:02;;;;;;;2.37;0.57;;;10.30;99.90;;;;;;4997060;28;20177;-78
2022/02/17 01:33:27;;;;;;;3.80;0.63;;;10.20;99.90;;;;;;5002895;28;20192;-78
2022/02/17 01:35:53;;;;;;;1.80;0.60;;;10.10;99.90;;;;;;4996969;28;20193;-79
2022/02/17 01:38:19;;;;;;;3.80;0.70;;;9.90;99.90;;;;;;5011428;28;20212;-79
2022/02/17 01:40:45;;;;;;;2.27;0.70;;;9.90;99.90;;;;;;4997400;28;20215;-81
2022/02/17 01:43:16;;;;;;;1.73;0.73;;;9.90;99.90;;;;;;4995642;28;20765;-76
2022/02/17 01:45:42;;;;;;;1.47;0.50;;;9.90;99.90;;;;;;4994834;28;20536;-76
2022/02/17 01:48:09;;;;;;;3.00;0.80;;;9.90;99.90;;;;;;4997269;28;20172;-76
2022/02/17 01:50:40;;;;;;;3.60;0.60;;;9.90;99.90;;;;;;4995674;28;20187;-77
2022/02/17 01:53:06;;;;;;;1.43;0.53;;;9.90;99.90;;;;;;4995062;28;20169;-79
2022/02/17 01:55:31;;;;;;;1.80;0.70;;;9.90;99.90;;;;;;5009673;28;20211;-79
2022/02/17 01:57:59;;;;;;;2.63;0.83;;;9.90;99.90;;;;;;4996765;28;20285;-78
2022/02/17 02:00:24;;;;;;;2.30;0.87;;;10.00;99.90;;;;;;5011986;28;20179;-78
2022/02/17 02:02:50;;;;;;;2.70;0.87;;;10.00;99.90;;;;;;4996028;28;20214;-78
2022/02/17 02:05:15;;;;;;;1.80;0.70;;;10.10;99.90;;;;;;4996231;28;20176;-76
2022/02/17 02:07:41;;;;;;;2.40;0.70;;;10.20;99.90;;;;;;5002381;28;20273;-78
2022/02/17 02:10:07;;;;;;;3.03;0.90;;;10.20;99.90;;;;;;4996048;28;20249;-78
2022/02/17 02:12:33;;;;;;;2.77;1.07;;;10.30;99.90;;;;;;4998444;28;20194;-77
2022/02/17 02:14:59;;;;;;;4.80;1.87;;;10.30;99.90;;;;;;4998208;28;20184;-77
2022/02/17 02:17:26;;;;;;;4.50;1.40;;;10.40;99.90;;;;;;5000606;28;20658;-76
2022/02/17 02:19:57;;;;;;;1.90;0.87;;;10.40;99.90;;;;;;5000155;28;20254;-76
2022/02/17 02:22:30;;;;;;;2.17;0.97;;;10.50;99.90;;;;;;5000493;28;20207;-77
2022/02/17 02:24:58;;;;;;;3.90;1.07;;;10.50;99.90;;;;;;4999254;28;20653;-76
2022/02/17 02:27:25;;;;;;;4.77;0.83;;;10.50;99.90;;;;;;5000788;28;20172;-80
2022/02/17 02:29:50;;;;;;;2.33;0.70;;;10.50;99.90;;;;;;4999382;28;20211;-78
2022/02/17 02:32:16;;;;;;;4.90;0.60;;;10.50;99.90;;;;;;4999698;28;20557;-77
2022/02/17 02:34:42;;;;;;;4.70;0.90;;;10.40;99.90;;;;;;4998271;28;20219;-78
2022/02/17 02:37:07;;;;;;;4.00;0.80;;;10.40;99.90;;;;;;4998455;28;20270;-79
2022/02/17 02:39:33;;;;;;;2.33;0.70;;;10.30;99.90;;;;;;5000028;28;20212;-80
2022/02/17 02:42:00;;;;;;;1.07;0.50;;;10.20;99.90;;;;;;5000233;28;20214;-79
2022/02/17 02:44:26;;;;;;;3.20;1.00;;;10.00;99.90;;;;;;5000162;28;20187;-77
2022/02/17 02:46:51;;;;;;;0.93;0.50;;;9.90;99.90;;;;;;4999929;28;21066;-77
2022/02/17 02:49:17;;;;;;;1.60;0.70;;;10.00;99.90;;;;;;4999838;28;20571;-77
2022/02/17 02:51:43;;;;;;;2.20;0.53;;;9.80;99.90;;;;;;5014825;28;20187;-80
2022/02/17 02:54:09;;;;;;;4.10;0.70;;;9.80;99.90;;;;;;5000735;28;20761;-80
2022/02/17 02:56:35;;;;;;;3.00;0.67;;;9.60;99.90;;;;;;5001621;28;20192;-79
2022/02/17 02:59:01;;;;;;;2.00;0.70;;;9.60;99.90;;;;;;5000840;28;20210;-78
2022/02/17 03:01:26;;;;;;;1.40;0.70;;;9.70;99.90;;;;;;5000628;28;20191;-79
2022/02/17 03:03:52;;;;;;;3.33;0.80;;;9.50;99.90;;;;;;5001833;28;20180;-79
2022/02/17 03:06:18;;;;;;;2.20;0.80;;;9.60;99.90;;;;;;5000032;28;20653;-81
2022/02/17 03:08:44;;;;;;;4.10;0.80;;;9.60;99.90;;;;;;4999021;28;20203;-80
2022/02/17 03:11:10;;;;;;;4.17;0.90;;;9.70;99.90;;;;;;5016108;28;20548;-79
2022/02/17 03:13:35;;;;;;;3.73;0.70;;;9.80;99.90;;;;;;5016780;28;20184;-80
2022/02/17 03:16:01;;;;;;;3.87;1.03;;;9.90;99.90;;;;;;4997602;28;20655;-80
2022/02/17 03:18:27;;;;;;;3.93;0.90;;;10.00;99.90;;;;;;4998441;28;20606;-78
2022/02/17 03:20:53;;;;;;;3.10;1.10;;;9.90;99.90;;;;;;4997580;28;20184;-79
2022/02/17 03:23:19;;;;;;;6.40;1.00;;;9.90;99.90;;;;;;4997700;28;20207;-77
2022/02/17 03:25:44;;;;;;;4.87;1.50;;;10.00;99.90;;;;;;4997328;28;20189;-78
2022/02/17 03:28:10;;;;;;;6.17;1.90;;;10.00;99.90;;;;;;4998506;28;20223;-80
2022/02/17 03:30:35;;;;;;;3.60;1.00;;;10.00;99.90;;;;;;4999878;28;20183;-79
2022/02/17 03:33:01;;;;;;;3.33;1.20;;;10.00;99.90;;;;;;4999598;28;20572;-80
2022/02/17 03:35:27;;;;;;;6.00;1.30;;;10.10;99.90;;;;;;4999748;28;20303;-78
2022/02/17 03:37:53;;;;;;;3.57;0.90;;;10.00;99.90;;;;;;5000206;28;20325;-78
2022/02/17 03:40:18;;;;;;;7.20;1.50;;;10.00;99.90;;;;;;4999068;28;20192;-77
2022/02/17 03:42:44;;;;;;;4.80;1.23;;;10.10;99.90;;;;;;5000795;28;20199;-79
2022/02/17 03:45:10;;;;;;;5.20;0.87;;;10.00;99.90;;;;;;4999411;28;20708;-80
2022/02/17 03:47:36;;;;;;;5.63;1.20;;;10.10;99.90;;;;;;4999120;28;20184;-80
2022/02/17 03:50:04;;;;;;;1.60;0.63;;;10.00;99.90;;;;;;5014174;28;21207;-78
2022/02/17 03:52:29;;;;;;;2.27;0.70;;;9.50;99.90;;;;;;4999184;28;20184;-80
2022/02/17 03:54:55;;;;;;;2.63;0.77;;;9.20;99.90;;;;;;5013331;28;20233;-76
2022/02/17 03:57:21;;;;;;;3.57;0.77;;;9.00;99.90;;;;;;4998808;28;20275;-78
2022/02/17 03:59:47;;;;;;;3.63;0.97;;;8.90;99.90;;;;;;4999614;28;20211;-79
2022/02/17 04:02:12;;;;;;;5.10;0.90;;;8.80;99.90;;;;;;4997718;28;20219;-78
2022/02/17 04:04:38;;;;;;;3.50;1.07;;;8.60;99.90;;;;;;4998384;28;20191;-77
2022/02/17 04:07:05;;;;;;;3.90;0.87;;;8.70;99.90;;;;;;4998878;28;20233;-78
2022/02/17 04:09:31;;;;;;;6.27;0.90;;;8.70;99.90;;;;;;5000423;28;20212;-81
2022/02/17 04:11:56;;;;;;;4.57;1.10;;;8.80;99.90;;;;;;5001296;28;20196;-79
2022/02/17 04:14:22;;;;;;;4.13;1.00;;;8.90;99.90;;;;;;4996208;28;20223;-78
2022/02/17 04:16:47;;;;;;;5.00;1.77;;;8.90;99.90;;;;;;5012930;28;20200;-81
2022/02/17 04:19:13;;;;;;;4.93;1.20;;;9.10;99.90;;;;;;5012502;28;20309;-81
2022/02/17 04:21:39;;;;;;;8.20;1.27;;;9.40;99.90;;;;;;4999757;28;20190;-80
2022/02/17 04:24:05;;;;;;;4.97;0.97;;;9.40;99.90;;;;;;4998950;28;20560;-75
2022/02/17 04:26:31;;;;;;;6.60;1.50;;;9.30;99.90;;;;;;4998174;28;20203;-80
2022/02/17 04:28:57;;;;;;;5.00;1.07;;;9.20;99.90;;;;;;4996806;28;20208;-79
2022/02/17 04:31:23;;;;;;;4.00;1.30;;;9.20;99.90;;;;;;5015188;28;20216;-80
2022/02/17 04:33:49;;;;;;;4.03;1.10;;;9.00;99.90;;;;;;4998130;28;20188;-79
2022/02/17 04:36:15;;;;;;;5.83;1.07;;;9.00;99.90;;;;;;4998743;28;20329;-78
2022/02/17 04:38:41;;;;;;;9.90;1.37;;;9.00;99.90;;;;;;5014077;28;20267;-79
2022/02/17 04:43:51;;;;;;;2.87;1.53;;;9.00;99.90;;;;;;4999215;28;20191;-80
2022/02/17 04:46:17;;;;;;;5.13;1.67;;;9.00;99.90;;;;;;4998504;28;20181;-81
2022/02/17 04:48:43;;;;;;;7.97;1.27;;;9.00;99.90;;;;;;4996694;28;20195;-82
2022/02/17 04:51:09;;;;;;;4.87;1.10;;;9.10;99.90;;;;;;4996922;28;20184;-79
2022/02/17 04:53:35;;;;;;;5.17;1.13;;;9.10;99.90;;;;;;4998829;28;20256;-79
2022/02/17 04:56:01;;;;;;;3.27;1.07;;;9.10;99.90;;;;;;5012258;28;20184;-78
2022/02/17 04:58:27;;;;;;;7.00;1.30;;;9.10;99.90;;;;;;4993628;28;20219;-79
2022/02/17 05:00:53;;;;;;;5.93;1.17;;;9.10;99.90;;;;;;5002700;28;20187;-82
2022/02/17 05:03:23;;;;;;;3.30;1.23;;;9.20;99.90;;;;;;4995464;28;20222;-79
2022/02/17 05:05:50;;;;;;;3.63;1.17;;;9.10;99.90;;;;;;4993123;28;20259;-82
2022/02/17 05:08:16;;;;;;;3.87;1.33;;;9.10;99.90;;;;;;4989858;28;20212;-81
2022/02/17 05:10:41;;;;;;;5.30;1.13;;;9.10;99.90;;;;;;5013409;28;20312;-80
2022/02/17 05:13:07;;;;;;;3.13;1.00;;;9.10;99.90;;;;;;4995473;28;20492;-80
2022/02/17 05:15:32;;;;;;;5.53;1.10;;;9.10;99.90;;;;;;5003039;28;20195;-79
2022/02/17 05:17:58;;;;;;;3.80;1.20;;;9.10;99.90;;;;;;4997685;28;20191;-80
2022/02/17 05:20:24;;;;;;;4.70;1.23;;;9.00;99.90;;;;;;4992835;28;20175;-82
2022/02/17 05:22:49;;;;;;;5.43;1.37;;;8.90;99.90;;;;;;5001294;28;20207;-78
2022/02/17 05:25:15;;;;;;;4.13;1.27;;;8.80;99.90;;;;;;4996254;28;20207;-80
2022/02/17 05:27:41;;;;;;;4.27;1.10;;;8.70;99.90;;;;;;4995513;28;20268;-83
2022/02/17 05:30:07;;;;;;;6.27;1.30;;;8.70;99.90;;;;;;4991784;28;20281;-79
2022/02/17 05:32:41;;;;;;;4.20;1.30;;;8.60;99.90;;;;;;5010082;28;20211;-80
2022/02/17 05:35:08;;;;;;;5.50;1.17;;;8.60;99.90;;;;;;4999845;28;20229;-81
2022/02/17 05:37:34;;;;;;;2.53;0.83;;;8.70;99.90;;;;;;5004686;28;20191;-78
2022/02/17 05:40:01;;;;;;;4.83;1.17;;;8.70;99.90;;;;;;5005935;28;20614;-79
2022/02/17 05:42:26;;;;;;;4.37;1.50;;;8.60;99.90;;;;;;4998568;28;20219;-79
2022/02/17 05:44:52;;;;;;;4.23;1.13;;;8.60;99.90;;;;;;4986403;28;20180;-79
2022/02/17 05:47:17;;;;;;;6.03;2.07;;;8.70;99.90;;;;;;4986453;28;20246;-79
2022/02/17 05:49:43;;;;;;;7.57;1.67;;;8.70;99.90;;;;;;4990579;28;20223;-79
2022/02/17 05:52:08;;;;;;;4.47;1.40;;;8.70;99.90;;;;;;4990975;28;20196;-77
2022/02/17 05:54:34;;;;;;;5.27;1.20;;;8.70;99.90;;;;;;4990386;28;20281;-78
2022/02/17 05:57:00;;;;;;;6.90;1.27;;;8.80;99.90;;;;;;4991991;28;20267;-83
2022/02/17 05:59:25;;;;;;;4.30;1.47;;;8.80;99.90;;;;;;5005336;28;20298;-81
2022/02/17 06:01:51;;;;;;;6.27;1.30;;;8.80;99.90;;;;;;4993293;28;20221;-81
2022/02/17 06:04:17;;;;;;;4.03;0.90;;;8.80;99.90;;;;;;4994145;28;20219;-80
2022/02/17 06:06:42;;;;;;;2.90;0.80;;;8.70;99.90;;;;;;4993666;28;20187;-80
2022/02/17 06:09:08;;;;;;;7.33;1.20;;;8.70;99.90;;;;;;5009508;28;20208;-80
2022/02/17 06:11:33;;;;;;;6.33;1.30;;;8.70;99.90;;;;;;5006112;28;20299;-80
2022/02/17 06:13:59;;;;;;;2.13;0.70;;;8.60;99.90;;;;;;4994321;28;20175;-80
2022/02/17 06:16:24;;;;;;;5.03;1.10;;;8.50;99.90;;;;;;5004820;28;20587;-81
2022/02/17 06:18:50;;;;;;;4.30;1.17;;;8.50;99.90;;;;;;4995752;28;20218;-82
2022/02/17 06:21:16;;;;;;;6.17;1.10;;;8.40;99.90;;;;;;4994437;28;20172;-78
2022/02/17 06:23:41;;;;;;;4.03;1.27;;;8.30;99.90;;;;;;4992761;28;20717;-83
2022/02/17 06:26:07;;;;;;;4.37;1.43;;;8.40;99.90;;;;;;4998245;28;20180;-80
2022/02/17 06:28:33;;;;;;;6.00;1.47;;;8.30;99.90;;;;;;4993551;28;20210;-79
2022/02/17 06:30:58;;;;;;;4.50;1.20;;;8.40;99.90;;;;;;5001265;28;20669;-80
2022/02/17 06:33:24;;;;;;;5.00;1.10;;;8.40;99.90;;;;;;4996739;28;20250;-83
2022/02/17 06:35:50;;;;;;;4.30;1.60;;;8.50;99.90;;;;;;4995604;28;20186;-80
2022/02/17 06:38:15;;;;;;;7.70;1.23;;;8.40;99.90;;;;;;5009601;28;20208;-80
2022/02/17 06:40:41;;;;;;;5.13;1.30;;;8.40;99.90;;;;;;4993861;28;20191;-80
2022/02/17 06:43:09;;;;;;;6.70;1.30;;;8.40;99.90;;;;;;4991899;28;20218;-82
2022/02/17 06:45:35;;;;;;;5.50;1.27;;;8.40;99.90;;;;;;4994454;28;20210;-81
2022/02/17 06:48:02;;;;;;;2.57;0.93;;;8.50;99.90;;;;;;4999907;28;20203;-80
2022/02/17 06:50:28;;;;;;;4.33;1.13;;;8.60;99.90;;;;;;4987379;28;20182;-79
2022/02/17 06:52:54;;;;;;;5.03;0.93;;;8.60;99.90;;;;;;5011570;28;20558;-81
2022/02/17 06:55:19;;;;;;;5.07;1.10;;;8.50;99.90;;;;;;4995528;28;20207;-83
2022/02/17 06:57:45;;;;;;;6.30;1.60;;;8.50;99.90;;;;;;5008319;28;20188;-84
2022/02/17 07:00:11;;;;;;;2.60;1.00;;;8.50;99.90;;;;;;4997568;28;20219;-80
2022/02/17 07:02:37;;;;;;;4.37;1.50;;;8.50;99.90;;;;;;5009949;28;20216;-83
2022/02/17 07:05:04;;;;;;;4.43;0.90;;;8.60;99.90;;;;;;5012050;28;20184;-80
2022/02/17 07:07:33;;;;;;;4.37;1.00;;;8.60;99.90;;;;;;4994727;28;20828;-80
2022/02/17 07:09:59;;;;;;;3.33;1.00;;;8.60;99.90;;;;;;4995568;28;20204;-80
2022/02/17 07:12:25;;;;;;;7.10;2.13;;;8.60;99.90;;;;;;4993357;28;20206;-79
2022/02/17 07:14:53;;;;;;;6.97;2.90;;;8.60;99.90;;;;;;4995202;28;20239;-82
2022/02/17 07:17:20;;;;;;;3.40;1.43;;;8.60;99.90;;;;;;5014334;28;20862;-81
2022/02/17 07:19:46;;;;;;;3.07;0.93;;;8.50;99.90;;;;;;5003540;28;20215;-82
2022/02/17 07:22:12;;;;;;;3.70;0.97;;;8.60;99.90;;;;;;4991854;28;20590;-79
2022/02/17 07:24:38;;;;;;;3.43;0.90;;;8.60;99.90;;;;;;4994556;28;20575;-82
2022/02/17 07:27:05;;;;;;;2.90;1.13;;;8.60;99.90;;;;;;5011898;28;20183;-82
2022/02/17 07:29:30;;;;;;;2.17;1.10;;;8.60;99.90;;;;;;5001504;28;20203;-84
2022/02/17 07:31:56;;;;;;;4.63;1.10;;;8.70;99.90;;;;;;4998193;28;20225;-81
2022/02/17 07:34:22;;;;;;;3.83;1.07;;;8.70;99.90;;;;;;4996519;28;20925;-80
2022/02/17 07:36:48;;;;;;;5.70;1.13;;;8.70;99.90;;;;;;5011491;28;20188;-80
2022/02/17 07:39:14;;;;;;;6.87;1.27;;;8.70;99.90;;;;;;4991392;28;20694;-81
2022/02/17 07:41:39;;;;;;;2.03;0.93;;;8.70;99.90;;;;;;5012207;28;20221;-80
2022/02/17 07:44:07;;;;;;;4.87;1.10;;;8.80;99.90;;;;;;5015154;28;20184;-78
2022/02/17 07:46:33;;;;;;;1.87;0.70;;;8.90;99.90;;;;;;4996889;28;20194;-81
2022/02/17 07:49:00;;;;;;;2.83;1.00;;;8.80;99.90;;;;;;5000314;28;20266;-81
2022/02/17 07:51:27;;;;;;;3.63;0.97;;;8.80;99.90;;;;;;4997424;28;20185;-79
2022/02/17 07:53:52;;;;;;;5.03;1.23;;;8.80;99.90;;;;;;4998356;28;20212;-78
2022/02/17 07:56:18;;;;;;;4.07;1.03;;;8.80;99.90;;;;;;5012130;28;20188;-79
2022/02/17 07:58:44;;;;;;;4.83;1.10;;;8.80;99.90;;;;;;5003319;28;20237;-83
2022/02/17 08:01:09;;;;;;;5.70;1.60;;;8.90;99.90;;;;;;5007755;28;20188;-80
2022/02/17 08:03:36;;;;;;;2.47;0.93;;;8.90;99.90;;;;;;5001463;28;20238;-78
2022/02/17 08:06:02;;;;;;;6.93;0.80;;;8.80;99.90;;;;;;4991525;28;20202;-80
2022/02/17 08:08:28;;;;;;;4.00;0.80;;;8.70;99.90;;;;;;4992336;28;20223;-79
2022/02/17 08:10:54;;;;;;;2.77;0.80;;;8.80;99.90;;;;;;4993401;28;20187;-80
2022/02/17 08:13:20;;;;;;;3.13;0.90;;;8.80;99.90;;;;;;4994737;28;20187;-81
2022/02/17 08:15:46;;;;;;;6.07;1.10;;;8.90;99.90;;;;;;5004702;28;20542;-80
2022/02/17 08:18:12;;;;;;;3.33;0.70;;;8.90;99.90;;;;;;5009484;28;20200;-82
2022/02/17 08:20:37;;;;;;;4.37;0.80;;;8.90;99.90;;;;;;4986925;28;20638;-79
2022/02/17 08:23:03;;;;;;;2.33;0.90;;;8.90;99.90;;;;;;4993684;28;20239;-79
2022/02/17 08:25:29;;;;;;;2.47;0.80;;;8.90;99.90;;;;;;4984767;28;20184;-81
2022/02/17 08:27:55;;;;;;;3.33;1.03;;;8.90;99.90;;;;;;4994964;28;20185;-81
2022/02/17 08:30:21;;;;;;;5.67;1.10;;;8.90;99.90;;;;;;5012194;28;20294;-82
2022/02/17 08:32:47;;;;;;;2.63;0.77;;;9.10;99.90;;;;;;4988257;28;20195;-79
2022/02/17 08:35:13;;;;;;;3.63;0.70;;;9.10;99.90;;;;;;4996929;28;20184;-80
2022/02/17 08:37:40;;;;;;;3.63;1.23;;;9.30;99.90;;;;;;4992821;28;20188;-78
2022/02/17 08:40:09;;;;;;;4.53;1.00;;;9.20;99.90;;;;;;4994524;28;20648;-79
2022/02/17 08:42:35;;;;;;;5.67;1.10;;;9.20;99.90;;;;;;4998527;28;20222;-82
2022/02/17 08:45:01;;;;;;;2.07;0.87;;;9.30;99.90;;;;;;5005512;28;20213;-83
2022/02/17 08:47:30;;;;;;;3.30;1.20;;;9.40;99.90;;;;;;5013819;28;20192;-84
2022/02/17 08:49:56;;;;;;;4.03;1.10;;;9.50;99.90;;;;;;4998893;28;20290;-80
2022/02/17 08:52:21;;;;;;;2.80;1.27;;;9.60;99.90;;;;;;4996982;28;20361;-80
2022/02/17 08:54:50;;;;;;;6.10;1.50;;;9.60;99.90;;;;;;4997582;28;20196;-82
2022/02/17 08:57:17;;;;;;;4.77;0.90;;;9.70;99.90;;;;;;4998197;28;20215;-83
2022/02/17 08:59:42;;;;;;;2.50;0.80;;;9.80;99.90;;;;;;4999521;28;20681;-79
2022/02/17 09:02:08;;;;;;;4.17;0.87;;;9.90;99.90;;;;;;4996358;28;20219;-79
2022/02/17 09:04:34;;;;;;;4.60;1.20;;;9.80;99.90;;;;;;4996817;28;20185;-80
2022/02/17 09:07:05;;;;;;;4.83;1.40;;;9.60;99.90;;;;;;4997117;28;20188;-80
2022/02/17 09:09:31;;;;;;;3.63;0.70;;;9.40;99.90;;;;;;4996030;28;20215;-78
2022/02/17 09:11:57;;;;;;;6.43;1.10;;;9.30;99.90;;;;;;4997680;28;20629;-80
2022/02/17 09:14:22;;;;;;;3.67;1.10;;;9.30;99.90;;;;;;5011654;28;20195;-79
2022/02/17 09:16:48;;;;;;;7.43;1.83;;;9.50;99.90;;;;;;5004993;28;20184;-80
2022/02/17 09:19:13;;;;;;;6.40;1.40;;;9.50;99.90;;;;;;4996749;28;20269;-80
2022/02/17 09:21:40;;;;;;;3.50;1.07;;;9.50;99.90;;;;;;4996061;28;20198;-79
2022/02/17 09:24:06;;;;;;;3.03;0.83;;;9.50;99.90;;;;;;4999392;28;20193;-81
2022/02/17 09:26:33;;;;;;;3.40;1.07;;;9.50;99.90;;;;;;4994510;28;20710;-82
2022/02/17 09:28:59;;;;;;;3.83;1.47;;;9.30;99.90;;;;;;4995844;28;20216;-79
2022/02/17 09:31:25;;;;;;;3.50;1.00;;;9.30;99.90;;;;;;4999314;28;20181;-82
2022/02/17 09:33:52;;;;;;;3.10;1.10;;;9.30;99.90;;;;;;5014857;28;20192;-82
2022/02/17 09:36:20;;;;;;;6.00;1.73;;;9.40;99.90;;;;;;5006125;28;20227;-79
2022/02/17 09:38:46;;;;;;;4.40;1.10;;;9.50;99.90;;;;;;5000537;28;20227;-81
2022/02/17 09:41:16;;;;;;;4.37;1.17;;;9.60;99.90;;;;;;4998589;28;20270;-82
2022/02/17 09:43:44;;;;;;;4.27;1.03;;;9.60;99.90;;;;;;4996945;28;20200;-79
2022/02/17 09:46:12;;;;;;;3.43;1.03;;;9.50;99.90;;;;;;4996089;28;20556;-79
2022/02/17 09:48:40;;;;;;;5.47;0.87;;;9.20;99.90;;;;;;4996237;28;20230;-80
2022/02/17 09:51:05;;;;;;;2.57;0.97;;;9.20;99.90;;;;;;5013847;28;20829;-79
2022/02/17 09:53:31;;;;;;;5.67;1.40;;;9.20;99.90;;;;;;4998114;28;20205;-81
2022/02/17 09:55:57;;;;;;;3.07;1.03;;;9.10;99.90;;;;;;5013676;28;20184;-80
2022/02/17 09:58:22;;;;;;;5.00;1.03;;;9.20;99.90;;;;;;4999293;28;20208;-78
2022/02/17 10:00:48;;;;;;;3.43;0.97;;;9.00;99.90;;;;;;4996925;28;20199;-79
2022/02/17 10:03:29;;;;;;;6.87;1.13;;;9.20;99.90;;;;;;5013135;28;20279;-80
2022/02/17 10:06:09;;;;;;;2.77;0.67;;;9.50;99.90;;;;;;4997454;28;20199;-85
2022/02/17 10:08:36;;;;;;;2.53;1.03;;;9.70;99.90;;;;;;4995889;28;20207;-80
2022/02/17 10:11:03;;;;;;;3.33;0.90;;;9.80;99.90;;;;;;4999570;28;20186;-82
2022/02/17 10:13:29;;;;;;;2.40;0.73;;;9.60;99.90;;;;;;5004782;28;21034;-80
2022/02/17 10:15:58;;;;;;;3.20;0.93;;;9.60;99.90;;;;;;4996989;28;20576;-83
2022/02/17 10:18:27;;;;;;;4.07;1.10;;;9.60;99.90;;;;;;5012309;28;20246;-82
2022/02/17 10:21:07;;;;;;;2.90;0.90;;;9.80;99.90;;;;;;4997309;28;20195;-83
2022/02/17 10:23:39;;;;;;;3.67;1.00;;;9.70;99.90;;;;;;4997740;28;20222;-80
2022/02/17 10:26:16;;;;;;;4.90;1.13;;;9.40;99.90;;;;;;4994945;28;20184;-79
2022/02/17 10:28:44;;;;;;;1.07;0.67;;;9.30;99.90;;;;;;5013046;28;20198;-83
2022/02/17 10:31:24;;;;;;;3.47;0.97;;;9.30;99.90;;;;;;5007532;28;20536;-81
2022/02/17 10:33:52;;;;;;;3.27;0.80;;;9.40;99.90;;;;;;5016479;28;20179;-80
2022/02/17 10:36:42;;;;;;;3.27;0.90;;;9.40;99.90;;;;;;5000324;28;20339;-79
2022/02/17 10:39:14;;;;;;;4.07;1.07;;;9.50;99.90;;;;;;4997515;28;20224;-80
2022/02/17 10:41:47;;;;;;;4.30;1.13;;;9.50;99.90;;;;;;5007108;28;20665;-79
2022/02/17 10:44:14;;;;;;;5.70;1.53;;;9.30;99.90;;;;;;5001026;28;20191;-81
2022/02/17 10:46:39;;;;;;;6.50;1.60;;;9.10;99.90;;;;;;5000758;28;20663;-82
2022/02/17 10:49:11;;;;;;;5.90;1.00;;;9.00;99.90;;;;;;5000080;28;20224;-79
2022/02/17 10:51:37;;;;;;;5.80;1.20;;;8.80;99.90;;;;;;4999292;28;20192;-82
2022/02/17 10:54:02;;;;;;;4.07;1.20;;;8.70;99.90;;;;;;4997841;28;20385;-83
2022/02/17 10:56:32;;;;;;;3.60;1.37;;;8.60;99.90;;;;;;4996145;28;20194;-80
2022/02/17 11:00:00;;;;;;;11.57;1.30;;;8.40;99.90;;;;;;5000809;28;20593;-80
2022/02/17 11:01:57;;;;;;;5.80;1.20;;;8.20;99.90;;;;;;4998447;28;20552;-81
2022/02/17 11:04:23;;;;;;;5.70;2.63;;;8.00;99.90;;;;;;4998551;28;20179;-79
2022/02/17 11:06:51;;;;;;;7.50;1.60;;;8.10;99.90;;;;;;5006606;28;20183;-80
2022/02/17 11:09:17;;;;;;;6.53;1.43;;;8.40;99.90;;;;;;4997744;28;20199;-81
2022/02/17 11:11:44;;;;;;;3.27;0.80;;;8.60;99.90;;;;;;4996966;28;20519;-80
2022/02/17 11:14:09;;;;;;;6.30;1.20;;;8.70;99.90;;;;;;4996396;28;20176;-79
2022/02/17 11:16:39;;;;;;;2.27;1.10;;;8.90;99.90;;;;;;4994691;28;20646;-83
2022/02/17 11:19:05;;;;;;;5.97;1.30;;;8.90;99.90;;;;;;4995772;28;20747;-80
2022/02/17 11:21:30;;;;;;;5.13;1.00;;;9.10;99.90;;;;;;5006488;28;20310;-86
2022/02/17 11:24:00;;;;;;;2.60;1.07;;;9.30;99.90;;;;;;4998893;28;20241;-79
2022/02/17 11:26:30;;;;;;;4.70;1.47;;;9.50;99.90;;;;;;4993064;28;20189;-78
2022/02/17 11:28:57;;;;;;;4.13;1.13;;;9.90;99.90;;;;;;4995408;28;20210;-82
2022/02/17 11:31:22;;;;;;;6.40;1.00;;;9.90;99.90;;;;;;5010130;28;20911;-84
2022/02/17 11:33:57;;;;;;;6.20;1.20;;;10.00;99.90;;;;;;4991213;28;20192;-81
2022/02/17 11:36:24;;;;;;;4.33;1.03;;;9.80;99.90;;;;;;5005180;28;20455;-79
2022/02/17 11:38:51;;;;;;;3.23;1.10;;;9.90;99.90;;;;;;4998138;28;20670;-80
2022/02/17 11:41:19;;;;;;;3.57;0.87;;;9.70;99.90;;;;;;5009719;28;20184;-79
2022/02/17 11:43:47;;;;;;;5.87;0.90;;;9.70;99.90;;;;;;5012095;28;20215;-79
2022/02/17 11:46:15;;;;;;;3.50;0.90;;;9.60;99.90;;;;;;4995590;28;20215;-80
2022/02/17 11:48:45;;;;;;;3.07;0.90;;;9.50;99.90;;;;;;4997287;28;20199;-80
2022/02/17 11:51:15;;;;;;;1.83;0.93;;;9.40;99.90;;;;;;5011915;28;20191;-80
2022/02/17 11:53:43;;;;;;;6.33;1.00;;;9.40;99.90;;;;;;5011953;28;20335;-80
2022/02/17 11:56:17;;;;;;;1.97;0.93;;;9.60;99.90;;;;;;4994004;28;20192;-82
2022/02/17 11:58:53;;;;;;;4.40;1.23;;;9.70;99.90;;;;;;4995214;28;20678;-80
2022/02/17 12:01:27;;;;;;;5.30;1.10;;;9.70;99.90;;;;;;4996458;28;20187;-79
2022/02/17 12:04:08;;;;;;;2.80;0.90;;;9.50;99.90;;;;;;4993166;28;20246;-79
2022/02/17 12:06:45;;;;;;;2.10;0.70;;;9.60;99.90;;;;;;4997175;28;20677;-82
2022/02/17 12:09:29;;;;;;;4.10;0.90;;;9.50;99.90;;;;;;4995821;28;20266;-81
2022/02/17 12:12:25;;;;;;;4.80;1.07;;;9.60;99.90;;;;;;4995719;28;20646;-82
2022/02/17 12:14:59;;;;;;;3.10;1.10;;;9.70;99.90;;;;;;5006152;28;20189;-83
2022/02/17 12:17:27;;;;;;;1.63;0.70;;;9.70;99.90;;;;;;4993929;28;20269;-83
2022/02/17 12:20:07;;;;;;;3.60;0.77;;;9.80;99.90;;;;;;4993596;28;20195;-82
2022/02/17 12:22:34;;;;;;;3.53;1.00;;;9.70;99.90;;;;;;4995611;28;20302;-80
2022/02/17 12:25:17;;;;;;;2.33;1.20;;;9.70;99.90;;;;;;5011120;28;20619;-78
2022/02/17 12:27:51;;;;;;;4.43;0.97;;;9.80;99.90;;;;;;4992449;28;20449;-79
2022/02/17 12:30:49;;;;;;;3.00;1.33;;;9.90;99.90;;;;;;4992704;28;20225;-84
2022/02/17 12:33:18;;;;;;;3.53;1.10;;;10.10;99.90;;;;;;5006631;28;20295;-84
2022/02/17 12:35:46;;;;;;;2.03;1.00;;;10.10;99.90;;;;;;4992880;28;20192;-80
2022/02/17 12:38:17;;;;;;;2.70;0.63;;;10.00;99.90;;;;;;4992492;28;20244;-81
2022/02/17 12:40:45;;;;;;;3.80;1.03;;;9.80;99.90;;;;;;4999282;28;20202;-78
2022/02/17 12:43:11;;;;;;;6.83;0.90;;;9.80;99.90;;;;;;4996803;28;20223;-80
2022/02/17 12:45:47;;;;;;;3.23;0.70;;;10.00;99.90;;;;;;4998679;28;20614;-79
2022/02/17 12:48:14;;;;;;;4.03;1.30;;;10.00;99.90;;;;;;5007699;28;20534;-80
2022/02/17 12:50:42;;;;;;;3.30;1.27;;;9.80;99.90;;;;;;4996591;28;20291;-82
2022/02/17 12:53:08;;;;;;;2.57;0.83;;;9.70;99.90;;;;;;4991075;28;20558;-85
2022/02/17 12:55:43;;;;;;;4.23;1.20;;;9.40;99.90;;;;;;4994936;28;20188;-83
2022/02/17 12:58:10;;;;;;;2.97;1.10;;;9.20;99.90;;;;;;4997167;28;20274;-79